Time;durP1;ratioP1;P1;durP2;ratioP2;P2;SDS_P1;SDS_P2;PMS_P1;PMS_P2;Temp;Humidity;BMP_temperature;BMP_pressure;BME280_temperature;BME280_humidity;BME280_pressure;Samples;Min_cycle;Max_cycle;Signal;HPM_P1;HPM_P2
2023/02/10 00:01:31;;;;;;;1.65;0.00;;;;;;;2.61;62.80;100454.41;5018346;28;20057;-77
2023/02/10 00:03:59;;;;;;;0.00;0.00;;;;;;;2.62;61.82;100455.31;5026111;28;20042;-76
2023/02/10 00:06:28;;;;;;;0.00;0.00;;;;;;;2.61;61.36;100461.28;5019346;28;20343;-76
2023/02/10 00:08:58;;;;;;;0.30;0.00;;;;;;;2.62;62.11;100463.91;5026241;28;20049;-76
2023/02/10 00:14:06;;;;;;;1.48;0.00;;;;;;;2.61;61.48;100472.47;5019818;28;20060;-76
2023/02/10 00:16:33;;;;;;;0.00;0.00;;;;;;;2.62;61.05;100465.63;5024358;28;20425;-76
2023/02/10 00:19:00;;;;;;;0.32;0.00;;;;;;;2.61;60.02;100481.91;5019417;28;20052;-76
2023/02/10 00:21:27;;;;;;;1.15;0.00;;;;;;;2.57;60.52;100480.19;5020382;28;20045;-76
2023/02/10 00:23:54;;;;;;;0.10;0.00;;;;;;;2.60;60.36;100511.16;5013179;28;20053;-75
2023/02/10 00:26:22;;;;;;;2.30;0.00;;;;;;;2.60;60.11;100506.84;5030211;28;20053;-75
2023/02/10 00:28:49;;;;;;;1.40;0.00;;;;;;;2.61;59.58;100510.28;5025841;28;20056;-76
2023/02/10 00:31:18;;;;;;;0.38;0.00;;;;;;;2.60;59.72;100508.56;5029549;28;20048;-76
2023/02/10 00:33:46;;;;;;;0.00;0.00;;;;;;;2.58;58.82;100526.59;5023379;28;20060;-76
2023/02/10 00:36:14;;;;;;;0.20;0.00;;;;;;;2.59;58.79;100527.44;5029054;28;20546;-76
2023/02/10 00:38:42;;;;;;;0.00;0.00;;;;;;;2.53;59.11;100527.38;5026082;28;20054;-75
2023/02/10 00:41:11;;;;;;;0.00;0.00;;;;;;;2.58;59.03;100543.78;5032351;28;20079;-75
2023/02/10 00:43:40;;;;;;;0.10;0.00;;;;;;;2.58;59.26;100549.78;5026856;28;20042;-76
2023/02/10 00:46:07;;;;;;;0.82;0.00;;;;;;;2.58;59.14;100548.94;5027548;28;20930;-76
2023/02/10 00:48:35;;;;;;;1.75;0.00;;;;;;;2.57;58.46;100540.34;5026033;28;20406;-75
2023/02/10 00:51:02;;;;;;;0.10;0.00;;;;;;;2.56;57.76;100554.09;5025294;28;20509;-75
2023/02/10 00:53:29;;;;;;;0.73;0.00;;;;;;;2.50;57.67;100542.84;5023736;28;20516;-76
2023/02/10 00:55:56;;;;;;;2.72;0.00;;;;;;;2.52;58.06;100561.75;5025527;28;20071;-76
2023/02/10 00:58:23;;;;;;;1.10;0.00;;;;;;;2.53;57.48;100573.81;5023863;28;20063;-76
2023/02/10 01:00:52;;;;;;;0.47;0.00;;;;;;;2.54;57.52;100583.28;5025804;28;20052;-77
2023/02/10 01:03:19;;;;;;;0.00;0.00;;;;;;;2.52;57.26;100591.00;5021233;28;20425;-76
2023/02/10 01:05:45;;;;;;;0.10;0.00;;;;;;;2.52;57.55;100592.72;5022239;28;20041;-76
2023/02/10 01:08:13;;;;;;;0.10;0.00;;;;;;;2.53;57.67;100608.19;5020513;28;20052;-76
2023/02/10 01:10:40;;;;;;;0.00;0.00;;;;;;;2.53;57.93;100589.28;5025407;28;20045;-76
2023/02/10 01:13:08;;;;;;;0.10;0.00;;;;;;;2.51;57.63;100585.84;5022655;28;20044;-76
2023/02/10 01:15:36;;;;;;;3.72;0.00;;;;;;;2.50;57.47;100587.53;5023033;28;20041;-77
2023/02/10 01:18:04;;;;;;;0.70;0.00;;;;;;;2.50;57.17;100590.09;5029722;28;20132;-77
2023/02/10 01:20:31;;;;;;;0.10;0.00;;;;;;;2.48;56.91;100572.06;5025039;28;20048;-77
2023/02/10 01:22:58;;;;;;;0.22;0.00;;;;;;;2.50;56.85;100590.09;5020111;28;20045;-76
2023/02/10 01:25:24;;;;;;;0.10;0.00;;;;;;;2.49;57.46;100598.69;5024738;28;20485;-75
2023/02/10 01:27:51;;;;;;;0.90;0.00;;;;;;;2.41;57.02;100585.69;5023827;28;20083;-76
2023/02/10 01:30:18;;;;;;;0.10;0.00;;;;;;;2.48;56.75;100603.00;5028632;28;20041;-76
2023/02/10 01:32:45;;;;;;;0.17;0.00;;;;;;;2.48;57.02;100615.03;5022720;28;20061;-76
2023/02/10 01:35:13;;;;;;;0.10;0.10;;;;;;;2.47;57.47;100623.59;5028484;28;20050;-76
2023/02/10 01:37:40;;;;;;;0.00;0.00;;;;;;;2.45;56.93;100610.69;5025050;28;20046;-76
2023/02/10 01:40:09;;;;;;;1.08;0.00;;;;;;;2.45;56.72;100626.16;5021682;28;20124;-76
2023/02/10 01:42:38;;;;;;;0.20;0.00;;;;;;;2.44;56.11;100633.84;5023830;28;20064;-76
2023/02/10 01:45:16;;;;;;;2.17;0.00;;;;;;;2.43;56.65;100642.44;5025192;28;20081;-75
2023/02/10 01:47:45;;;;;;;0.40;0.00;;;;;;;2.35;56.69;100637.19;5021563;28;20413;-76
2023/02/10 01:50:14;;;;;;;0.00;0.00;;;;;;;2.40;55.96;100645.00;5027341;28;20053;-77
2023/02/10 01:52:43;;;;;;;0.43;0.00;;;;;;;2.39;56.27;100656.13;5022223;28;20041;-75
2023/02/10 01:55:13;;;;;;;0.45;0.00;;;;;;;2.38;56.03;100655.28;5028818;28;20049;-76
2023/02/10 01:57:42;;;;;;;0.98;0.00;;;;;;;2.37;55.68;100658.72;5021547;28;20482;-76
2023/02/10 02:00:11;;;;;;;0.55;0.00;;;;;;;2.37;55.79;100665.56;5026815;28;20050;-76
2023/02/10 02:02:38;;;;;;;3.33;0.00;;;;;;;2.35;55.28;100662.97;5021998;28;20056;-76
2023/02/10 02:05:07;;;;;;;0.00;0.00;;;;;;;2.33;55.23;100677.53;5018463;28;20053;-77
2023/02/10 02:07:38;;;;;;;1.92;1.17;;;;;;;2.32;55.47;100693.00;5022351;28;20057;-77
2023/02/10 02:10:07;;;;;;;0.20;0.00;;;;;;;2.30;55.50;100702.41;5022320;28;20509;-76
2023/02/10 02:12:42;;;;;;;0.00;0.00;;;;;;;2.28;55.35;100692.09;5025152;28;20564;-76
2023/02/10 02:15:17;;;;;;;0.00;0.00;;;;;;;2.25;55.26;100692.91;5023874;28;20469;-76
2023/02/10 02:17:52;;;;;;;0.52;0.00;;;;;;;2.22;55.06;100708.34;5026486;28;20047;-77
2023/02/10 02:20:52;;;;;;;0.00;0.00;;;;;;;2.22;55.22;100720.34;5026493;28;20041;-77
2023/02/10 02:23:45;;;;;;;2.17;0.00;;;;;;;2.19;55.30;100726.34;5022479;28;20048;-76
2023/02/10 02:26:57;;;;;;;0.10;0.00;;;;;;;2.16;55.29;100736.59;5022516;28;20045;-76
2023/02/10 02:29:53;;;;;;;0.80;0.00;;;;;;;2.12;55.20;100723.63;4946822;28;20059;-76
2023/02/10 02:32:22;;;;;;;0.15;0.00;;;;;;;2.09;54.29;100745.06;5025293;28;20524;-76
2023/02/10 02:34:54;;;;;;;0.00;0.00;;;;;;;2.07;55.17;100741.59;5019805;28;20041;-76
2023/02/10 02:37:25;;;;;;;0.93;0.00;;;;;;;2.03;54.67;100740.69;5022102;28;20494;-76
2023/02/10 02:39:55;;;;;;;0.00;0.00;;;;;;;2.01;54.06;100744.94;5022635;28;20050;-77
2023/02/10 02:42:24;;;;;;;0.50;0.40;;;;;;;2.00;53.88;100752.66;5022594;28;20078;-75
2023/02/10 02:44:54;;;;;;;0.30;0.00;;;;;;;1.98;53.74;100744.88;5021549;28;20572;-76
2023/02/10 02:47:53;;;;;;;0.00;0.00;;;;;;;1.97;54.65;100756.06;5020891;28;20779;-76
2023/02/10 02:50:25;;;;;;;0.88;0.00;;;;;;;1.94;53.96;100747.41;5017240;28;20045;-76
2023/02/10 02:53:14;;;;;;;1.65;0.00;;;;;;;1.92;54.05;100769.69;5022876;28;20468;-76
2023/02/10 02:55:51;;;;;;;1.85;0.08;;;;;;;1.90;54.23;100767.09;5017546;28;20046;-76
2023/02/10 02:58:25;;;;;;;3.25;0.00;;;;;;;1.87;54.67;100785.06;5026717;28;20056;-75
2023/02/10 03:00:54;;;;;;;0.40;0.00;;;;;;;1.84;54.65;100782.44;5023137;28;20044;-76
2023/02/10 03:03:23;;;;;;;1.02;0.00;;;;;;;1.79;53.49;100776.34;5017765;28;20074;-76
2023/02/10 03:05:50;;;;;;;0.00;0.00;;;;;;;1.71;53.65;100767.63;5017812;28;20070;-76
2023/02/10 03:08:17;;;;;;;0.03;0.00;;;;;;;1.77;53.96;100794.34;5020392;28;20060;-76
2023/02/10 03:10:43;;;;;;;0.17;0.00;;;;;;;1.76;54.25;100802.03;5023688;28;20046;-76
2023/02/10 03:13:10;;;;;;;0.00;0.00;;;;;;;1.74;54.53;100801.16;5021187;28;20046;-76
2023/02/10 03:15:37;;;;;;;0.55;0.00;;;;;;;1.73;53.54;100801.97;5021074;28;20416;-76
2023/02/10 03:18:04;;;;;;;0.22;0.00;;;;;;;1.70;53.43;100794.19;5024652;28;20045;-75
2023/02/10 03:20:32;;;;;;;0.40;0.00;;;;;;;1.70;53.42;100786.47;5023452;28;20125;-76
2023/02/10 03:22:59;;;;;;;0.00;0.00;;;;;;;1.69;53.83;100800.22;5016508;28;20049;-76
2023/02/10 03:25:26;;;;;;;0.63;0.00;;;;;;;1.67;53.80;100814.75;5024008;28;20049;-76
2023/02/10 03:27:53;;;;;;;0.45;0.00;;;;;;;1.65;53.46;100788.09;5023160;28;20490;-76
2023/02/10 03:30:20;;;;;;;0.75;0.00;;;;;;;1.62;53.26;100814.66;5019604;28;20053;-76
2023/02/10 03:32:48;;;;;;;0.10;0.00;;;;;;;1.53;52.69;100794.75;5022847;28;20049;-76
2023/02/10 03:35:15;;;;;;;0.00;0.00;;;;;;;1.58;53.13;100810.31;5023424;28;20107;-75
2023/02/10 03:37:44;;;;;;;2.08;0.00;;;;;;;1.55;53.61;100797.38;5023972;28;20050;-76
2023/02/10 03:40:11;;;;;;;0.65;0.00;;;;;;;1.53;53.16;100799.91;5020695;28;20048;-76
2023/02/10 03:42:38;;;;;;;0.00;0.00;;;;;;;1.34;53.04;100777.25;5024463;28;20045;-76
2023/02/10 03:45:06;;;;;;;0.55;0.00;;;;;;;1.50;53.12;100817.88;5018901;28;20058;-76
2023/02/10 03:47:34;;;;;;;0.10;0.00;;;;;;;1.49;52.75;100812.72;5015768;28;20042;-76
2023/02/10 03:50:01;;;;;;;0.00;0.00;;;;;;;1.45;52.63;100800.59;5023165;28;20071;-76
2023/02/10 03:52:28;;;;;;;0.00;0.00;;;;;;;1.46;52.58;100823.81;5019793;28;20054;-76
2023/02/10 03:54:56;;;;;;;0.35;0.00;;;;;;;1.43;52.71;100828.91;5021378;28;20049;-76
2023/02/10 03:57:23;;;;;;;0.28;0.00;;;;;;;1.42;53.01;100837.44;5020318;28;20458;-72
2023/02/10 03:59:50;;;;;;;1.08;0.00;;;;;;;1.30;52.84;100827.78;5021395;28;20052;-73
2023/02/10 04:02:17;;;;;;;1.05;0.00;;;;;;;1.39;52.48;100852.81;5020366;28;20048;-72
2023/02/10 04:04:43;;;;;;;0.00;0.00;;;;;;;1.37;52.78;100863.94;5024679;28;20421;-73
2023/02/10 04:07:10;;;;;;;0.75;0.00;;;;;;;1.31;52.64;100865.56;5018300;28;20049;-73
2023/02/10 04:09:37;;;;;;;0.00;0.00;;;;;;;1.35;52.91;100876.78;5017247;28;20046;-73
2023/02/10 04:12:06;;;;;;;1.27;0.00;;;;;;;1.33;52.64;100892.19;5021556;28;20386;-73
2023/02/10 04:14:33;;;;;;;0.52;0.00;;;;;;;1.33;52.24;100893.88;5022824;28;20399;-73
2023/02/10 04:17:00;;;;;;;0.22;0.00;;;;;;;1.30;52.46;100894.69;5020158;28;20042;-73
2023/02/10 04:19:27;;;;;;;0.43;0.00;;;;;;;1.30;52.10;100888.69;5020585;28;20435;-74
2023/02/10 04:21:54;;;;;;;2.00;0.00;;;;;;;1.28;52.09;100877.47;5019508;28;20060;-72
2023/02/10 04:24:21;;;;;;;0.20;0.00;;;;;;;1.24;51.92;100885.97;5019609;28;20104;-73
2023/02/10 04:26:48;;;;;;;0.85;0.00;;;;;;;1.25;52.04;100890.28;5019807;28;20045;-72
2023/02/10 04:29:16;;;;;;;0.52;0.00;;;;;;;1.17;52.35;100879.84;5019257;28;20515;-73
2023/02/10 04:31:43;;;;;;;0.10;0.00;;;;;;;1.22;52.78;100901.38;5016832;28;20283;-73
2023/02/10 04:34:10;;;;;;;0.85;0.00;;;;;;;1.23;52.29;100903.13;5017017;28;20053;-73
2023/02/10 04:36:37;;;;;;;1.08;0.00;;;;;;;1.22;51.33;100913.38;5015511;28;20405;-72
2023/02/10 04:39:04;;;;;;;0.08;0.00;;;;;;;1.21;51.44;100914.22;5015298;28;20054;-72
2023/02/10 04:41:31;;;;;;;0.05;0.00;;;;;;;1.19;52.10;100900.44;5019249;28;20713;-73
2023/02/10 04:43:57;;;;;;;2.42;0.00;;;;;;;1.18;52.35;100920.16;5015000;28;20498;-72
2023/02/10 04:46:26;;;;;;;2.13;0.00;;;;;;;1.16;52.29;100916.69;5018748;28;20052;-73
2023/02/10 04:48:52;;;;;;;1.50;0.10;;;;;;;1.15;51.42;100920.09;5019318;28;20053;-72
2023/02/10 04:51:19;;;;;;;0.00;0.00;;;;;;;1.14;52.25;100923.53;5015907;28;20041;-72
2023/02/10 04:53:47;;;;;;;2.90;0.00;;;;;;;1.15;50.99;100940.69;5022279;28;20417;-72
2023/02/10 04:56:14;;;;;;;0.05;0.00;;;;;;;1.13;51.94;100948.34;5016607;28;20137;-72
2023/02/10 04:58:42;;;;;;;0.05;0.00;;;;;;;1.12;52.05;100949.19;5018652;28;20049;-72
2023/02/10 05:01:08;;;;;;;0.00;0.00;;;;;;;1.10;51.59;100950.84;5015904;28;20072;-72
2023/02/10 05:03:37;;;;;;;0.15;0.00;;;;;;;1.10;51.17;100968.88;5018518;28;20429;-72
2023/02/10 05:06:08;;;;;;;1.02;0.00;;;;;;;1.09;51.99;100962.00;5020018;28;20057;-71
2023/02/10 05:08:40;;;;;;;1.70;0.00;;;;;;;1.09;51.33;100974.84;5018841;28;20052;-73
2023/02/10 05:11:07;;;;;;;0.40;0.00;;;;;;;1.07;51.58;100962.78;5022046;28;20050;-73
2023/02/10 05:13:35;;;;;;;1.15;0.00;;;;;;;1.10;51.56;100978.28;5024574;28;20046;-73
2023/02/10 05:16:02;;;;;;;3.40;0.10;;;;;;;1.08;51.10;100988.56;5024718;28;20055;-72
2023/02/10 05:18:30;;;;;;;0.10;0.00;;;;;;;1.08;51.60;100988.56;5023354;28;20103;-72
2023/02/10 05:20:58;;;;;;;0.25;0.00;;;;;;;1.09;52.22;101007.44;5018167;28;20061;-72
2023/02/10 05:23:26;;;;;;;0.40;0.00;;;;;;;1.09;51.76;101008.31;5020134;28;20041;-72
2023/02/10 05:25:53;;;;;;;0.52;0.10;;;;;;;1.08;51.28;101016.88;5022038;28;20042;-72
2023/02/10 05:28:20;;;;;;;1.85;0.00;;;;;;;1.09;51.39;101018.59;5019400;28;20060;-72
2023/02/10 05:30:47;;;;;;;1.00;0.10;;;;;;;1.10;51.91;101035.75;5021790;28;20525;-72
2023/02/10 05:33:14;;;;;;;0.10;0.05;;;;;;;1.09;51.47;101031.47;5020344;28;20046;-73
2023/02/10 05:35:41;;;;;;;0.90;0.10;;;;;;;1.08;51.45;101037.44;5017989;28;20486;-73
2023/02/10 05:38:10;;;;;;;3.40;0.08;;;;;;;1.10;51.72;101053.78;5020382;28;20042;-72
2023/02/10 05:40:37;;;;;;;5.80;0.10;;;;;;;1.07;51.66;101048.56;5018841;28;20160;-72
2023/02/10 05:43:04;;;;;;;0.30;0.00;;;;;;;1.08;51.67;101037.44;5018563;28;20481;-73
2023/02/10 05:45:31;;;;;;;1.58;0.03;;;;;;;1.08;51.50;101036.56;5017042;28;20758;-72
2023/02/10 05:47:58;;;;;;;1.52;0.10;;;;;;;1.07;51.24;101056.28;5026022;28;20057;-72
2023/02/10 05:50:24;;;;;;;1.75;0.20;;;;;;;1.07;51.56;101064.00;5020759;28;20049;-72
2023/02/10 05:52:51;;;;;;;2.03;0.00;;;;;;;1.01;52.00;101061.25;5020464;28;20061;-74
2023/02/10 05:55:21;;;;;;;0.15;0.00;;;;;;;1.05;51.30;101083.69;5020378;28;20128;-74
2023/02/10 05:57:47;;;;;;;0.28;0.00;;;;;;;1.05;52.09;101093.97;5019402;28;20391;-73
2023/02/10 06:00:16;;;;;;;1.80;0.00;;;;;;;1.04;51.58;101117.94;5021382;28;20057;-72
2023/02/10 06:02:43;;;;;;;0.88;0.00;;;;;;;1.03;51.76;101111.06;5022268;28;20049;-73
2023/02/10 06:05:10;;;;;;;0.68;0.00;;;;;;;0.94;51.61;101108.25;5019676;28;20516;-73
2023/02/10 06:07:37;;;;;;;0.30;0.00;;;;;;;1.00;51.59;101126.41;5016839;28;20042;-73
2023/02/10 06:10:04;;;;;;;2.00;0.00;;;;;;;0.96;51.44;101122.00;5019014;28;20045;-72
2023/02/10 06:12:32;;;;;;;2.47;0.10;;;;;;;0.99;51.78;101129.81;5014452;28;20506;-72
2023/02/10 06:14:59;;;;;;;1.55;0.00;;;;;;;0.97;51.70;101130.59;5019685;28;20145;-73
2023/02/10 06:17:27;;;;;;;0.52;0.00;;;;;;;0.97;51.68;101135.72;5015711;28;20049;-72
2023/02/10 06:19:54;;;;;;;4.18;0.08;;;;;;;0.95;51.99;101164.00;5019195;28;20065;-72
2023/02/10 06:22:21;;;;;;;2.38;0.00;;;;;;;0.95;52.02;101156.28;5022487;28;20053;-73
2023/02/10 06:24:48;;;;;;;0.30;0.05;;;;;;;0.93;51.37;101152.78;5018610;28;20042;-73
2023/02/10 06:27:16;;;;;;;3.00;0.10;;;;;;;0.92;50.88;101151.06;5020953;28;20414;-73
2023/02/10 06:29:45;;;;;;;0.00;0.00;;;;;;;0.91;51.19;101167.31;5018504;28;20050;-73
2023/02/10 06:32:12;;;;;;;0.52;0.00;;;;;;;0.90;51.44;101163.88;5018568;28;20058;-73
2023/02/10 06:34:40;;;;;;;4.07;0.00;;;;;;;0.89;52.06;101172.44;5019414;28;20426;-73
2023/02/10 06:37:07;;;;;;;2.72;0.05;;;;;;;0.88;51.59;101182.66;5021153;28;20061;-73
2023/02/10 06:39:34;;;;;;;2.17;0.57;;;;;;;0.88;51.63;101198.09;5022661;28;20057;-74
2023/02/10 06:42:00;;;;;;;0.20;0.00;;;;;;;0.86;51.91;101199.78;5022394;28;20059;-73
2023/02/10 06:44:27;;;;;;;1.10;0.00;;;;;;;0.85;51.44;101221.16;5019083;28;20422;-73
2023/02/10 06:46:56;;;;;;;3.83;0.10;;;;;;;0.85;52.23;101224.63;5024732;28;20045;-72
2023/02/10 06:49:23;;;;;;;0.10;0.10;;;;;;;0.82;52.17;101216.78;5017870;28;20057;-72
2023/02/10 06:51:50;;;;;;;2.92;0.10;;;;;;;0.82;51.67;101223.63;5017565;28;20060;-73
2023/02/10 06:54:17;;;;;;;0.85;0.00;;;;;;;0.83;51.81;101245.97;5017460;28;20442;-74
2023/02/10 06:56:45;;;;;;;0.50;0.00;;;;;;;0.78;51.71;101244.97;5022771;28;20041;-75
2023/02/10 06:59:12;;;;;;;0.40;0.00;;;;;;;0.81;52.61;101247.63;5018100;28;20107;-76
2023/02/10 07:01:39;;;;;;;0.98;0.43;;;;;;;0.80;52.37;101262.19;5015281;28;20057;-76
2023/02/10 07:04:08;;;;;;;1.38;0.00;;;;;;;0.80;52.41;101263.91;5017874;28;20042;-76
2023/02/10 07:06:35;;;;;;;1.88;0.00;;;;;;;0.79;52.09;101272.41;5014066;28;20060;-76
2023/02/10 07:09:03;;;;;;;2.83;0.00;;;;;;;0.79;51.57;101277.56;5013455;28;20045;-73
2023/02/10 07:11:30;;;;;;;0.00;0.00;;;;;;;0.78;52.19;101281.84;5019157;28;20568;-72
2023/02/10 07:13:58;;;;;;;3.03;0.65;;;;;;;0.78;52.47;101291.25;5019191;28;20045;-74
2023/02/10 07:16:24;;;;;;;0.00;0.00;;;;;;;0.78;52.67;101288.69;5019824;28;20056;-74
2023/02/10 07:18:51;;;;;;;2.63;0.00;;;;;;;0.78;51.70;101304.13;5022019;28;20405;-72
2023/02/10 07:21:20;;;;;;;0.30;0.00;;;;;;;0.78;52.36;101322.13;5022104;28;20509;-75
2023/02/10 07:23:47;;;;;;;1.30;0.10;;;;;;;0.73;52.50;101319.38;5022533;28;20509;-77
2023/02/10 07:26:17;;;;;;;1.75;0.10;;;;;;;0.77;52.49;101335.78;5014960;28;20045;-73
2023/02/10 07:28:44;;;;;;;2.08;0.10;;;;;;;0.77;52.23;101339.25;5014615;28;20079;-74
2023/02/10 07:31:11;;;;;;;1.00;0.00;;;;;;;0.77;52.35;101353.78;5016071;28;20048;-73
2023/02/10 07:33:39;;;;;;;0.15;0.00;;;;;;;0.77;53.21;101348.63;5016325;28;20486;-73
2023/02/10 07:36:06;;;;;;;1.48;0.00;;;;;;;0.67;52.42;101332.94;5021589;28;20080;-74
2023/02/10 07:38:35;;;;;;;0.00;0.00;;;;;;;0.78;52.39;101365.84;5021448;28;20047;-74
2023/02/10 07:41:02;;;;;;;2.05;0.20;;;;;;;0.74;52.48;101363.97;5015128;28;20038;-74
2023/02/10 07:43:29;;;;;;;4.22;0.10;;;;;;;0.79;53.15;101365.00;5014838;28;20041;-75
2023/02/10 07:45:56;;;;;;;7.22;0.10;;;;;;;0.79;53.08;101372.72;5014564;28;20056;-74
2023/02/10 07:48:24;;;;;;;1.85;0.00;;;;;;;0.79;52.65;101372.72;5017151;28;20042;-76
2023/02/10 07:50:52;;;;;;;0.90;0.00;;;;;;;0.80;52.61;101384.75;5019093;28;20056;-74
2023/02/10 07:53:19;;;;;;;1.00;0.00;;;;;;;0.82;53.44;101398.50;5021962;28;20492;-73
2023/02/10 07:55:47;;;;;;;3.17;0.05;;;;;;;0.83;53.60;101388.28;5018788;28;20045;-74
2023/02/10 07:58:14;;;;;;;0.52;0.50;;;;;;;0.84;53.00;101405.47;5021164;28;20561;-74
2023/02/10 08:00:41;;;;;;;1.38;0.00;;;;;;;0.85;53.67;101403.75;5015573;28;20053;-74
2023/02/10 08:03:12;;;;;;;0.80;0.10;;;;;;;0.87;53.34;101407.25;5016391;28;20049;-73
2023/02/10 08:05:41;;;;;;;0.50;0.10;;;;;;;0.89;53.58;101418.47;5018912;28;20037;-74
2023/02/10 08:08:09;;;;;;;3.72;0.00;;;;;;;0.91;53.09;101424.50;5021508;28;20042;-74
2023/02/10 08:10:37;;;;;;;0.90;0.05;;;;;;;0.91;53.26;101429.66;5015873;28;20056;-75
2023/02/10 08:13:05;;;;;;;2.63;0.20;;;;;;;0.94;53.04;101434.94;5019047;28;20046;-73
2023/02/10 08:15:32;;;;;;;2.50;0.03;;;;;;;0.94;53.58;101445.22;5016975;28;20045;-73
2023/02/10 08:17:59;;;;;;;0.10;0.00;;;;;;;0.96;53.32;101440.97;5018145;28;20042;-73
2023/02/10 08:20:27;;;;;;;0.08;0.00;;;;;;;0.99;53.63;101464.22;5016341;28;20367;-73
2023/02/10 08:22:55;;;;;;;2.22;0.00;;;;;;;0.99;53.50;101453.06;5020737;28;20508;-73
2023/02/10 08:25:23;;;;;;;0.30;0.08;;;;;;;1.02;53.21;101466.88;5017593;28;20076;-73
2023/02/10 08:27:49;;;;;;;2.55;0.10;;;;;;;1.06;53.24;101479.03;5020593;28;20046;-73
2023/02/10 08:30:18;;;;;;;0.50;0.10;;;;;;;1.08;53.23;101495.41;5018567;28;20041;-73
2023/02/10 08:32:45;;;;;;;1.85;0.10;;;;;;;1.11;52.99;101484.31;5022111;28;20057;-73
2023/02/10 08:35:12;;;;;;;3.67;0.08;;;;;;;1.16;53.27;101494.75;5018130;28;20421;-76
2023/02/10 08:37:39;;;;;;;0.52;0.00;;;;;;;1.12;53.75;101484.38;5020498;28;20374;-74
2023/02/10 08:40:07;;;;;;;2.17;0.00;;;;;;;1.22;52.86;101502.66;5018283;28;20057;-75
2023/02/10 08:42:35;;;;;;;0.30;0.00;;;;;;;1.25;53.63;101507.91;5021421;28;20060;-75
2023/02/10 08:45:02;;;;;;;4.78;0.10;;;;;;;1.24;53.61;101506.19;5020708;28;20492;-74
2023/02/10 08:47:30;;;;;;;0.25;0.00;;;;;;;1.33;53.57;101527.03;5019315;28;20049;-74
2023/02/10 08:49:57;;;;;;;1.13;0.10;;;;;;;1.35;53.27;101530.56;5024171;28;20046;-74
2023/02/10 08:52:24;;;;;;;2.80;0.10;;;;;;;1.34;53.75;101531.38;5020443;28;20050;-75
2023/02/10 08:54:51;;;;;;;0.50;0.00;;;;;;;1.41;53.39;101535.88;5023961;28;20053;-74
2023/02/10 08:57:19;;;;;;;0.30;0.00;;;;;;;1.45;53.68;101550.63;5021498;28;20386;-73
2023/02/10 08:59:46;;;;;;;1.90;0.20;;;;;;;1.46;53.67;101552.34;5020507;28;20053;-74
2023/02/10 09:02:13;;;;;;;2.08;0.10;;;;;;;1.50;53.47;101555.88;5021772;28;20053;-74
2023/02/10 09:04:42;;;;;;;4.28;0.35;;;;;;;1.52;53.81;101562.84;5018351;28;20486;-74
2023/02/10 09:07:10;;;;;;;2.30;0.08;;;;;;;1.54;53.84;101566.34;5019394;28;20041;-73
2023/02/10 09:09:40;;;;;;;2.25;0.10;;;;;;;1.56;53.17;101577.53;5020440;28;20042;-73
2023/02/10 09:12:10;;;;;;;0.70;0.00;;;;;;;1.57;53.22;101570.72;5023355;28;20042;-75
2023/02/10 09:14:37;;;;;;;0.32;0.00;;;;;;;1.61;53.55;101589.69;5025468;28;20056;-74
2023/02/10 09:17:04;;;;;;;3.10;0.38;;;;;;;1.62;53.75;101591.44;5024353;28;20052;-79
2023/02/10 09:19:31;;;;;;;3.35;0.30;;;;;;;1.64;52.68;101600.09;5024294;28;20057;-74
2023/02/10 09:21:59;;;;;;;1.35;1.17;;;;;;;1.65;52.67;101602.75;5018591;28;20058;-73
2023/02/10 09:24:27;;;;;;;4.40;0.30;;;;;;;1.67;53.61;101598.47;5019924;28;20053;-75
2023/02/10 09:26:53;;;;;;;0.47;0.03;;;;;;;1.42;53.26;101557.34;5024298;28;20045;-74
2023/02/10 09:29:20;;;;;;;1.00;0.10;;;;;;;1.72;53.02;101606.38;5021095;28;20053;-76
2023/02/10 09:31:47;;;;;;;0.00;0.00;;;;;;;1.73;53.75;101614.13;5021096;28;20042;-75
2023/02/10 09:34:14;;;;;;;0.45;0.00;;;;;;;1.75;52.33;101614.19;5024791;28;20401;-73
2023/02/10 09:36:41;;;;;;;0.63;0.10;;;;;;;1.76;53.28;101616.78;4984746;28;20042;-76
2023/02/10 09:39:09;;;;;;;0.80;0.28;;;;;;;1.77;52.79;101615.13;5025317;28;20045;-74
2023/02/10 09:41:47;;;;;;;0.20;0.00;;;;;;;1.78;52.74;101629.72;5017190;28;20486;-75
2023/02/10 09:44:20;;;;;;;1.70;0.00;;;;;;;1.77;52.60;101621.13;5019875;28;20053;-77
2023/02/10 09:47:03;;;;;;;0.45;0.28;;;;;;;1.78;52.92;101634.88;5025722;28;20047;-77
2023/02/10 09:50:00;;;;;;;0.30;0.00;;;;;;;1.82;53.41;101633.28;5017843;28;20049;-74
2023/02/10 09:52:37;;;;;;;0.10;0.00;;;;;;;1.80;53.00;101638.38;5005362;28;20054;-73
2023/02/10 09:55:13;;;;;;;2.63;0.00;;;;;;;1.84;52.37;101637.66;5022960;28;20108;-78
2023/02/10 09:57:45;;;;;;;2.00;0.03;;;;;;;1.83;53.07;101617.88;5026745;28;20045;-74
2023/02/10 10:00:24;;;;;;;4.55;0.10;;;;;;;1.89;52.39;101638.66;5023414;28;20050;-75
2023/02/10 10:02:54;;;;;;;3.45;0.10;;;;;;;1.85;52.01;101625.63;5020085;28;20051;-73
2023/02/10 10:05:31;;;;;;;0.75;0.10;;;;;;;1.93;52.03;101645.66;5020527;28;20109;-74
2023/02/10 10:08:00;;;;;;;1.10;0.10;;;;;;;1.80;51.93;101634.09;5021484;28;20414;-73
2023/02/10 10:10:35;;;;;;;2.65;0.10;;;;;;;1.95;51.85;101649.16;5024504;28;20060;-79
2023/02/10 10:13:02;;;;;;;0.00;0.00;;;;;;;1.97;51.94;101650.09;5018414;28;20046;-80
2023/02/10 10:15:38;;;;;;;1.48;0.00;;;;;;;1.97;52.05;101657.81;5025472;28;20049;-78
2023/02/10 10:18:15;;;;;;;1.58;0.10;;;;;;;1.99;51.72;101674.22;5027874;28;20049;-77
2023/02/10 10:20:54;;;;;;;4.35;1.38;;;;;;;2.00;52.47;101678.53;5031517;28;20053;-76
2023/02/10 10:23:31;;;;;;;1.85;0.10;;;;;;;2.02;51.68;101687.19;5028517;28;20051;-77
2023/02/10 10:26:12;;;;;;;0.52;0.00;;;;;;;1.96;51.67;101661.22;5022820;28;20054;-75
2023/02/10 10:28:50;;;;;;;2.05;0.10;;;;;;;2.04;52.13;101674.34;5020758;28;20096;-75
2023/02/10 10:31:19;;;;;;;3.30;0.03;;;;;;;2.07;51.90;101676.13;5021967;28;20045;-75
2023/02/10 10:33:51;;;;;;;0.93;0.10;;;;;;;2.02;51.48;101666.56;5022285;28;20050;-74
2023/02/10 10:36:21;;;;;;;0.28;0.05;;;;;;;2.09;51.95;101671.91;5020046;28;20052;-74
2023/02/10 10:38:51;;;;;;;2.28;0.10;;;;;;;2.10;52.07;101676.22;5022285;28;20042;-74
2023/02/10 10:41:24;;;;;;;0.65;0.10;;;;;;;2.09;51.14;101671.91;5023200;28;20053;-74
2023/02/10 10:43:53;;;;;;;0.50;0.10;;;;;;;2.10;51.35;101679.66;5015990;28;20137;-75
2023/02/10 10:46:27;;;;;;;0.05;0.00;;;;;;;2.13;51.52;101684.03;5019264;28;20052;-74
2023/02/10 10:48:55;;;;;;;2.03;0.10;;;;;;;2.13;51.19;101695.22;5019092;28;20042;-74
2023/02/10 10:51:22;;;;;;;18.88;0.22;;;;;;;2.14;50.77;101691.84;5018005;28;20402;-74
2023/02/10 10:53:52;;;;;;;1.35;0.10;;;;;;;2.14;51.12;101686.69;5018481;28;20049;-74
2023/02/10 10:56:29;;;;;;;3.85;0.32;;;;;;;2.16;50.78;101687.63;5021326;28;20048;-74
2023/02/10 10:58:57;;;;;;;2.45;0.13;;;;;;;2.17;51.49;101697.09;5021927;28;20081;-74
2023/02/10 11:01:34;;;;;;;1.45;0.10;;;;;;;2.14;50.96;101683.25;5021476;28;20049;-74
2023/02/10 11:04:07;;;;;;;0.77;0.10;;;;;;;2.18;51.10;101693.66;5020021;28;20041;-74
2023/02/10 11:06:37;;;;;;;1.83;0.10;;;;;;;2.21;50.48;101692.88;5020560;28;20049;-74
2023/02/10 11:09:08;;;;;;;2.42;0.10;;;;;;;2.22;50.66;101694.63;5018690;28;20575;-74
2023/02/10 11:11:39;;;;;;;0.17;0.10;;;;;;;2.22;51.22;101710.09;5018219;28;20054;-74
2023/02/10 11:14:15;;;;;;;2.95;0.10;;;;;;;2.23;50.53;101693.81;5018199;28;20410;-74
2023/02/10 11:16:45;;;;;;;2.47;0.93;;;;;;;2.23;49.84;101701.56;5015005;28;20571;-75
2023/02/10 11:19:20;;;;;;;2.13;0.15;;;;;;;2.26;50.42;101693.91;5020619;28;20049;-74
2023/02/10 11:21:47;;;;;;;4.00;0.10;;;;;;;2.27;50.26;101694.78;5016447;28;20452;-74
2023/02/10 11:24:21;;;;;;;0.20;0.10;;;;;;;2.28;50.67;101693.94;5016974;28;20079;-74
2023/02/10 11:26:58;;;;;;;3.05;0.10;;;;;;;2.29;51.02;101695.72;5017230;28;20056;-74
2023/02/10 11:29:25;;;;;;;5.68;0.35;;;;;;;2.27;50.60;101692.19;5014591;28;20065;-74
2023/02/10 11:31:53;;;;;;;0.93;0.00;;;;;;;2.30;50.08;101688.00;5022806;28;20049;-74
2023/02/10 11:34:24;;;;;;;2.85;0.00;;;;;;;2.25;50.01;101685.31;5018060;28;20054;-75
2023/02/10 11:36:52;;;;;;;2.05;0.03;;;;;;;2.32;49.83;101690.66;5015354;28;20056;-74
2023/02/10 11:39:23;;;;;;;4.07;0.10;;;;;;;2.32;50.34;101690.66;5015629;28;20100;-75
2023/02/10 11:41:51;;;;;;;1.15;0.10;;;;;;;2.31;49.46;101684.63;5017903;28;20080;-74
2023/02/10 11:44:27;;;;;;;1.20;0.10;;;;;;;2.33;49.65;101692.38;5019142;28;20053;-74
2023/02/10 11:46:59;;;;;;;6.22;0.17;;;;;;;2.34;50.04;101687.28;5016697;28;20088;-74